Airfield :
LOGIN :

Register | Disclaimer

   EN    FR    IT 

 










Legend :    VFR   Marginal VFR   IFR   Intensive IFR   Very Intensive IFR
Visi :
Ceiling :
>= 8 km
>= 3000ft
5 to 8 km
1000 to 3000 ft
1500m to 5 km
500 to 1000 ft
800 to 1500m
200 to 500 ft
< 800m
< 200 ft
Symbols :   Thunderstorms  Fog  Heavy snow  Heavy precipitations  Wind > 20 kt
SIGMETs :     Misc.  Thunderstorms  Icing  Turbulence  Mountain Waves  Volcanic Ashes






- Airport Elevation : 622 ft
- IATA code : BRS


EGGD - Bristol Int.

CURRENT METAR :
  • 172050Z AUTO 18010KT 9999 FEW047 11/09 Q1000

EXPIRED METARs :
  • 172020Z AUTO 18009KT 9999 FEW013 11/08 Q1000
  • 171950Z AUTO 20010KT 9999 NCD 11/08 Q1000
  • 171920Z AUTO 20011KT 9999 NCD 11/08 Q1000
  • 171850Z AUTO 19011KT 9999 NCD 10/07 Q1001
  • 171820Z AUTO 19009KT 9999 NCD 11/08 Q1001

TAF TAF EGGD
Valid from the 17 at 18:00 until the 18 at 18:00 UTC


171658Z 1718/1818 19008KT 9999 SCT030
TEMPO 1718/1818 7000 SHRA
PROB30
TEMPO 1718/1809 20015G25KT 4000 +SHRA BKN009CB
BECMG 1809/1812 22018G28KT
PROB30
TEMPO 1810/1812 3000 +SHRA BKN009CB
ATIS : +44 1275 473 666



MET'MAP, your aeronautical weather chart ! - Copyright ORBIFLY December 2007 - Disclaimer

ORBIFLY MET'MAP TEAM :

Programming & Development : Alexandra Zaïnal
Concept & Development : Baudouin d'Aumeries
Co-Development & Prog : Marc-Olivier Méhu
Technical & hardware support : Manuel Goepfert

Contact : metmap@orbifly.com




SOURCES & CREDITS :

   NOAA